sensor_id;sensor_type;location;lat;lon;timestamp;P1;durP1;ratioP1;P2;durP2;ratioP2
66923;SDS011;53835;47.984;7.844;2022-11-15T00:02:18;6.27;;;3.17;;
66923;SDS011;53835;47.984;7.844;2022-11-15T00:04:45;5.97;;;3.20;;
66923;SDS011;53835;47.984;7.844;2022-11-15T00:07:12;3.77;;;3.00;;
66923;SDS011;53835;47.984;7.844;2022-11-15T00:09:40;4.13;;;3.07;;
66923;SDS011;53835;47.984;7.844;2022-11-15T00:12:07;3.63;;;3.17;;
66923;SDS011;53835;47.984;7.844;2022-11-15T00:14:34;5.60;;;3.30;;
66923;SDS011;53835;47.984;7.844;2022-11-15T00:17:01;3.93;;;3.00;;
66923;SDS011;53835;47.984;7.844;2022-11-15T00:19:29;5.07;;;3.47;;
66923;SDS011;53835;47.984;7.844;2022-11-15T00:21:56;3.87;;;3.13;;
66923;SDS011;53835;47.984;7.844;2022-11-15T00:24:23;5.20;;;3.20;;
66923;SDS011;53835;47.984;7.844;2022-11-15T00:26:50;5.93;;;3.20;;
66923;SDS011;53835;47.984;7.844;2022-11-15T00:29:18;4.93;;;3.27;;
66923;SDS011;53835;47.984;7.844;2022-11-15T00:31:45;3.93;;;2.73;;
66923;SDS011;53835;47.984;7.844;2022-11-15T00:34:12;4.10;;;2.93;;
66923;SDS011;53835;47.984;7.844;2022-11-15T00:36:39;3.27;;;2.87;;
66923;SDS011;53835;47.984;7.844;2022-11-15T00:39:07;3.40;;;3.03;;
66923;SDS011;53835;47.984;7.844;2022-11-15T00:41:34;3.17;;;2.87;;
66923;SDS011;53835;47.984;7.844;2022-11-15T00:44:01;4.27;;;2.70;;
66923;SDS011;53835;47.984;7.844;2022-11-15T00:46:29;4.10;;;2.70;;
66923;SDS011;53835;47.984;7.844;2022-11-15T00:48:56;7.40;;;2.93;;
66923;SDS011;53835;47.984;7.844;2022-11-15T00:51:23;3.10;;;2.80;;
66923;SDS011;53835;47.984;7.844;2022-11-15T00:53:50;3.70;;;2.93;;
66923;SDS011;53835;47.984;7.844;2022-11-15T00:56:18;4.13;;;2.60;;
66923;SDS011;53835;47.984;7.844;2022-11-15T00:58:45;2.70;;;2.50;;
66923;SDS011;53835;47.984;7.844;2022-11-15T01:01:13;3.93;;;2.70;;
66923;SDS011;53835;47.984;7.844;2022-11-15T01:03:41;4.70;;;2.70;;
66923;SDS011;53835;47.984;7.844;2022-11-15T01:06:08;3.63;;;2.63;;
66923;SDS011;53835;47.984;7.844;2022-11-15T01:08:36;5.73;;;3.10;;
66923;SDS011;53835;47.984;7.844;2022-11-15T01:11:04;6.40;;;2.73;;
66923;SDS011;53835;47.984;7.844;2022-11-15T01:13:33;4.53;;;2.70;;
66923;SDS011;53835;47.984;7.844;2022-11-15T01:16:10;3.03;;;2.67;;
66923;SDS011;53835;47.984;7.844;2022-11-15T01:18:38;2.90;;;2.60;;
66923;SDS011;53835;47.984;7.844;2022-11-15T01:21:06;4.30;;;2.70;;
66923;SDS011;53835;47.984;7.844;2022-11-15T01:23:33;7.00;;;3.00;;
66923;SDS011;53835;47.984;7.844;2022-11-15T01:26:01;2.83;;;2.53;;
66923;SDS011;53835;47.984;7.844;2022-11-15T01:28:30;6.27;;;2.90;;
66923;SDS011;53835;47.984;7.844;2022-11-15T01:30:58;4.83;;;2.80;;
66923;SDS011;53835;47.984;7.844;2022-11-15T01:33:25;4.30;;;2.63;;
66923;SDS011;53835;47.984;7.844;2022-11-15T01:35:53;2.50;;;2.30;;
66923;SDS011;53835;47.984;7.844;2022-11-15T01:38:20;3.80;;;2.30;;
66923;SDS011;53835;47.984;7.844;2022-11-15T01:40:48;3.27;;;2.37;;
66923;SDS011;53835;47.984;7.844;2022-11-15T01:43:20;2.23;;;1.90;;
66923;SDS011;53835;47.984;7.844;2022-11-15T01:45:49;3.47;;;2.03;;
66923;SDS011;53835;47.984;7.844;2022-11-15T01:48:16;2.30;;;2.10;;
66923;SDS011;53835;47.984;7.844;2022-11-15T01:50:43;2.70;;;2.50;;
66923;SDS011;53835;47.984;7.844;2022-11-15T01:53:11;2.67;;;2.30;;
66923;SDS011;53835;47.984;7.844;2022-11-15T01:55:39;1.90;;;1.80;;
66923;SDS011;53835;47.984;7.844;2022-11-15T01:58:06;5.17;;;2.20;;
66923;SDS011;53835;47.984;7.844;2022-11-15T02:00:34;3.67;;;2.00;;
66923;SDS011;53835;47.984;7.844;2022-11-15T02:03:01;3.60;;;2.27;;
66923;SDS011;53835;47.984;7.844;2022-11-15T02:05:29;3.07;;;2.37;;
66923;SDS011;53835;47.984;7.844;2022-11-15T02:07:57;3.57;;;2.13;;
66923;SDS011;53835;47.984;7.844;2022-11-15T02:10:24;4.67;;;2.50;;
66923;SDS011;53835;47.984;7.844;2022-11-15T02:12:52;2.40;;;2.20;;
66923;SDS011;53835;47.984;7.844;2022-11-15T02:15:19;2.30;;;2.10;;
66923;SDS011;53835;47.984;7.844;2022-11-15T02:17:56;3.20;;;1.90;;
66923;SDS011;53835;47.984;7.844;2022-11-15T02:22:55;4.77;;;2.17;;
66923;SDS011;53835;47.984;7.844;2022-11-15T02:25:34;4.37;;;2.20;;
66923;SDS011;53835;47.984;7.844;2022-11-15T02:28:20;2.20;;;2.00;;
66923;SDS011;53835;47.984;7.844;2022-11-15T02:30:45;4.70;;;2.07;;
66923;SDS011;53835;47.984;7.844;2022-11-15T02:33:28;2.57;;;2.10;;
66923;SDS011;53835;47.984;7.844;2022-11-15T02:35:58;3.27;;;2.10;;
66923;SDS011;53835;47.984;7.844;2022-11-15T02:38:40;2.43;;;1.67;;
66923;SDS011;53835;47.984;7.844;2022-11-15T02:41:09;1.83;;;1.73;;
66923;SDS011;53835;47.984;7.844;2022-11-15T02:46:23;1.70;;;1.60;;
66923;SDS011;53835;47.984;7.844;2022-11-15T02:48:52;1.70;;;1.60;;
66923;SDS011;53835;47.984;7.844;2022-11-15T02:51:20;1.73;;;1.63;;
66923;SDS011;53835;47.984;7.844;2022-11-15T02:53:47;1.73;;;1.40;;
66923;SDS011;53835;47.984;7.844;2022-11-15T02:56:15;1.80;;;1.57;;
66923;SDS011;53835;47.984;7.844;2022-11-15T02:58:57;1.80;;;1.70;;
66923;SDS011;53835;47.984;7.844;2022-11-15T03:06:22;2.57;;;1.80;;
66923;SDS011;53835;47.984;7.844;2022-11-15T03:11:20;2.00;;;1.50;;
66923;SDS011;53835;47.984;7.844;2022-11-15T03:13:55;1.57;;;1.47;;
66923;SDS011;53835;47.984;7.844;2022-11-15T03:16:24;1.67;;;1.57;;
66923;SDS011;53835;47.984;7.844;2022-11-15T03:18:54;2.47;;;1.77;;
66923;SDS011;53835;47.984;7.844;2022-11-15T03:21:21;2.97;;;1.73;;
66923;SDS011;53835;47.984;7.844;2022-11-15T03:23:49;2.80;;;1.50;;
66923;SDS011;53835;47.984;7.844;2022-11-15T03:26:18;1.67;;;1.57;;
66923;SDS011;53835;47.984;7.844;2022-11-15T03:28:50;1.50;;;1.40;;
66923;SDS011;53835;47.984;7.844;2022-11-15T03:31:19;1.60;;;1.50;;
66923;SDS011;53835;47.984;7.844;2022-11-15T03:34:05;1.90;;;1.70;;
66923;SDS011;53835;47.984;7.844;2022-11-15T03:36:34;2.37;;;1.90;;
66923;SDS011;53835;47.984;7.844;2022-11-15T03:39:03;2.50;;;1.90;;
66923;SDS011;53835;47.984;7.844;2022-11-15T03:41:44;1.93;;;1.80;;
66923;SDS011;53835;47.984;7.844;2022-11-15T03:44:32;1.93;;;1.70;;
66923;SDS011;53835;47.984;7.844;2022-11-15T03:46:42;4.53;;;1.80;;
66923;SDS011;53835;47.984;7.844;2022-11-15T03:49:10;2.93;;;1.70;;
66923;SDS011;53835;47.984;7.844;2022-11-15T03:51:38;1.97;;;1.50;;
66923;SDS011;53835;47.984;7.844;2022-11-15T03:54:05;1.90;;;1.70;;
66923;SDS011;53835;47.984;7.844;2022-11-15T03:56:33;1.87;;;1.70;;
66923;SDS011;53835;47.984;7.844;2022-11-15T03:59:00;1.70;;;1.60;;
66923;SDS011;53835;47.984;7.844;2022-11-15T04:01:27;2.47;;;2.00;;
66923;SDS011;53835;47.984;7.844;2022-11-15T04:03:54;2.27;;;2.07;;
66923;SDS011;53835;47.984;7.844;2022-11-15T04:06:22;2.93;;;2.17;;
66923;SDS011;53835;47.984;7.844;2022-11-15T04:08:49;3.37;;;2.23;;
66923;SDS011;53835;47.984;7.844;2022-11-15T04:11:16;2.83;;;2.17;;
66923;SDS011;53835;47.984;7.844;2022-11-15T04:13:43;2.30;;;2.10;;
66923;SDS011;53835;47.984;7.844;2022-11-15T04:16:11;2.53;;;2.23;;
66923;SDS011;53835;47.984;7.844;2022-11-15T04:18:38;2.50;;;2.30;;
66923;SDS011;53835;47.984;7.844;2022-11-15T04:21:05;2.80;;;2.60;;
66923;SDS011;53835;47.984;7.844;2022-11-15T04:23:51;5.07;;;2.83;;
66923;SDS011;53835;47.984;7.844;2022-11-15T04:26:23;3.60;;;2.77;;
66923;SDS011;53835;47.984;7.844;2022-11-15T04:28:50;6.33;;;3.17;;
66923;SDS011;53835;47.984;7.844;2022-11-15T04:31:36;3.20;;;2.90;;
66923;SDS011;53835;47.984;7.844;2022-11-15T04:34:03;3.30;;;3.00;;
66923;SDS011;53835;47.984;7.844;2022-11-15T04:36:30;5.27;;;3.13;;
66923;SDS011;53835;47.984;7.844;2022-11-15T04:39:15;3.47;;;2.87;;
66923;SDS011;53835;47.984;7.844;2022-11-15T04:41:43;4.50;;;3.00;;
66923;SDS011;53835;47.984;7.844;2022-11-15T04:44:10;4.10;;;2.83;;
66923;SDS011;53835;47.984;7.844;2022-11-15T04:46:38;3.07;;;2.83;;
66923;SDS011;53835;47.984;7.844;2022-11-15T04:49:05;3.40;;;3.03;;
66923;SDS011;53835;47.984;7.844;2022-11-15T04:51:32;4.57;;;3.00;;
66923;SDS011;53835;47.984;7.844;2022-11-15T04:53:59;2.73;;;2.53;;
66923;SDS011;53835;47.984;7.844;2022-11-15T04:56:27;3.23;;;2.60;;
66923;SDS011;53835;47.984;7.844;2022-11-15T04:58:54;6.33;;;3.13;;
66923;SDS011;53835;47.984;7.844;2022-11-15T05:01:21;3.17;;;2.73;;
66923;SDS011;53835;47.984;7.844;2022-11-15T05:03:48;4.90;;;3.40;;
66923;SDS011;53835;47.984;7.844;2022-11-15T05:06:34;4.33;;;2.90;;
66923;SDS011;53835;47.984;7.844;2022-11-15T05:09:01;4.10;;;3.17;;
66923;SDS011;53835;47.984;7.844;2022-11-15T05:11:28;3.57;;;2.90;;
66923;SDS011;53835;47.984;7.844;2022-11-15T05:13:56;3.33;;;2.90;;
66923;SDS011;53835;47.984;7.844;2022-11-15T05:16:23;3.43;;;2.80;;
66923;SDS011;53835;47.984;7.844;2022-11-15T05:18:51;3.17;;;2.83;;
66923;SDS011;53835;47.984;7.844;2022-11-15T05:21:18;4.53;;;3.13;;
66923;SDS011;53835;47.984;7.844;2022-11-15T05:23:46;4.90;;;2.90;;
66923;SDS011;53835;47.984;7.844;2022-11-15T05:26:13;3.17;;;2.80;;
66923;SDS011;53835;47.984;7.844;2022-11-15T05:28:41;3.20;;;2.80;;
66923;SDS011;53835;47.984;7.844;2022-11-15T05:31:12;4.67;;;3.03;;
66923;SDS011;53835;47.984;7.844;2022-11-15T05:33:40;4.07;;;2.80;;
66923;SDS011;53835;47.984;7.844;2022-11-15T05:38:49;4.90;;;2.90;;
66923;SDS011;53835;47.984;7.844;2022-11-15T05:41:20;4.20;;;3.00;;
66923;SDS011;53835;47.984;7.844;2022-11-15T05:43:49;4.90;;;3.13;;
66923;SDS011;53835;47.984;7.844;2022-11-15T05:46:17;3.93;;;3.03;;
66923;SDS011;53835;47.984;7.844;2022-11-15T05:48:45;2.80;;;2.60;;
66923;SDS011;53835;47.984;7.844;2022-11-15T05:51:13;4.60;;;2.83;;
66923;SDS011;53835;47.984;7.844;2022-11-15T05:53:42;3.00;;;2.70;;
66923;SDS011;53835;47.984;7.844;2022-11-15T05:56:10;3.63;;;3.00;;
66923;SDS011;53835;47.984;7.844;2022-11-15T05:58:37;4.27;;;2.90;;
66923;SDS011;53835;47.984;7.844;2022-11-15T06:01:05;3.53;;;2.67;;
66923;SDS011;53835;47.984;7.844;2022-11-15T06:03:32;5.97;;;4.10;;
66923;SDS011;53835;47.984;7.844;2022-11-15T06:05:59;5.57;;;4.10;;
66923;SDS011;53835;47.984;7.844;2022-11-15T06:08:26;4.80;;;3.40;;
66923;SDS011;53835;47.984;7.844;2022-11-15T06:10:54;5.17;;;3.30;;
66923;SDS011;53835;47.984;7.844;2022-11-15T06:13:21;5.70;;;3.33;;
66923;SDS011;53835;47.984;7.844;2022-11-15T06:15:48;4.30;;;3.20;;
66923;SDS011;53835;47.984;7.844;2022-11-15T06:18:16;3.47;;;2.73;;
66923;SDS011;53835;47.984;7.844;2022-11-15T06:20:43;3.80;;;3.20;;
66923;SDS011;53835;47.984;7.844;2022-11-15T06:23:10;6.10;;;2.97;;
66923;SDS011;53835;47.984;7.844;2022-11-15T06:25:37;3.97;;;3.60;;
66923;SDS011;53835;47.984;7.844;2022-11-15T06:28:05;4.30;;;3.23;;
66923;SDS011;53835;47.984;7.844;2022-11-15T06:30:32;4.30;;;3.07;;
66923;SDS011;53835;47.984;7.844;2022-11-15T06:33:03;3.77;;;3.37;;
66923;SDS011;53835;47.984;7.844;2022-11-15T06:35:32;3.10;;;2.80;;
66923;SDS011;53835;47.984;7.844;2022-11-15T06:38:03;3.63;;;3.00;;
66923;SDS011;53835;47.984;7.844;2022-11-15T06:40:33;4.17;;;2.90;;
66923;SDS011;53835;47.984;7.844;2022-11-15T06:43:00;4.60;;;3.27;;
66923;SDS011;53835;47.984;7.844;2022-11-15T06:45:27;3.17;;;2.90;;
66923;SDS011;53835;47.984;7.844;2022-11-15T06:47:54;6.33;;;2.90;;
66923;SDS011;53835;47.984;7.844;2022-11-15T06:50:22;3.50;;;3.10;;
66923;SDS011;53835;47.984;7.844;2022-11-15T06:52:49;3.43;;;3.00;;
66923;SDS011;53835;47.984;7.844;2022-11-15T06:55:16;3.83;;;3.23;;
66923;SDS011;53835;47.984;7.844;2022-11-15T06:57:47;6.43;;;3.23;;
66923;SDS011;53835;47.984;7.844;2022-11-15T07:00:15;3.97;;;3.20;;
66923;SDS011;53835;47.984;7.844;2022-11-15T07:02:42;3.83;;;3.10;;
66923;SDS011;53835;47.984;7.844;2022-11-15T07:05:10;4.87;;;3.30;;
66923;SDS011;53835;47.984;7.844;2022-11-15T07:07:37;3.43;;;3.00;;
66923;SDS011;53835;47.984;7.844;2022-11-15T07:10:06;4.27;;;3.10;;
66923;SDS011;53835;47.984;7.844;2022-11-15T07:12:33;3.63;;;3.10;;
66923;SDS011;53835;47.984;7.844;2022-11-15T07:15:00;3.50;;;3.10;;
66923;SDS011;53835;47.984;7.844;2022-11-15T07:17:28;5.40;;;3.90;;
66923;SDS011;53835;47.984;7.844;2022-11-15T07:19:55;3.83;;;2.40;;
66923;SDS011;53835;47.984;7.844;2022-11-15T07:22:22;3.63;;;2.87;;
66923;SDS011;53835;47.984;7.844;2022-11-15T07:24:49;4.27;;;2.87;;
66923;SDS011;53835;47.984;7.844;2022-11-15T07:27:17;4.67;;;3.07;;
66923;SDS011;53835;47.984;7.844;2022-11-15T07:29:44;3.03;;;2.60;;
66923;SDS011;53835;47.984;7.844;2022-11-15T07:32:11;5.07;;;2.90;;
66923;SDS011;53835;47.984;7.844;2022-11-15T07:34:38;4.50;;;3.20;;
66923;SDS011;53835;47.984;7.844;2022-11-15T07:37:06;5.83;;;3.30;;
66923;SDS011;53835;47.984;7.844;2022-11-15T07:39:33;5.37;;;3.10;;
66923;SDS011;53835;47.984;7.844;2022-11-15T07:42:00;3.73;;;3.33;;
66923;SDS011;53835;47.984;7.844;2022-11-15T07:44:46;3.47;;;2.97;;
66923;SDS011;53835;47.984;7.844;2022-11-15T07:47:13;6.50;;;4.30;;
66923;SDS011;53835;47.984;7.844;2022-11-15T07:49:40;6.47;;;3.63;;
66923;SDS011;53835;47.984;7.844;2022-11-15T07:52:07;3.93;;;2.83;;
66923;SDS011;53835;47.984;7.844;2022-11-15T07:54:35;3.40;;;3.10;;
66923;SDS011;53835;47.984;7.844;2022-11-15T07:57:02;4.13;;;3.37;;
66923;SDS011;53835;47.984;7.844;2022-11-15T07:59:29;3.70;;;3.10;;
66923;SDS011;53835;47.984;7.844;2022-11-15T08:01:57;4.40;;;3.93;;
66923;SDS011;53835;47.984;7.844;2022-11-15T08:04:24;5.50;;;4.17;;
66923;SDS011;53835;47.984;7.844;2022-11-15T08:06:51;6.07;;;4.33;;
66923;SDS011;53835;47.984;7.844;2022-11-15T08:09:18;4.07;;;3.33;;
66923;SDS011;53835;47.984;7.844;2022-11-15T08:11:46;5.13;;;4.53;;
66923;SDS011;53835;47.984;7.844;2022-11-15T08:14:13;7.33;;;4.37;;
66923;SDS011;53835;47.984;7.844;2022-11-15T08:16:40;5.00;;;3.83;;
66923;SDS011;53835;47.984;7.844;2022-11-15T08:19:07;5.97;;;4.57;;
66923;SDS011;53835;47.984;7.844;2022-11-15T08:21:35;6.00;;;4.27;;
66923;SDS011;53835;47.984;7.844;2022-11-15T08:24:03;7.17;;;4.60;;
66923;SDS011;53835;47.984;7.844;2022-11-15T08:26:31;6.13;;;4.10;;
66923;SDS011;53835;47.984;7.844;2022-11-15T08:28:58;4.77;;;4.07;;
66923;SDS011;53835;47.984;7.844;2022-11-15T08:31:25;5.80;;;3.77;;
66923;SDS011;53835;47.984;7.844;2022-11-15T08:33:52;5.17;;;3.93;;
66923;SDS011;53835;47.984;7.844;2022-11-15T08:36:20;4.73;;;3.47;;
66923;SDS011;53835;47.984;7.844;2022-11-15T08:38:47;6.77;;;4.37;;
66923;SDS011;53835;47.984;7.844;2022-11-15T08:41:48;6.73;;;4.00;;
66923;SDS011;53835;47.984;7.844;2022-11-15T08:43:49;6.10;;;4.00;;
66923;SDS011;53835;47.984;7.844;2022-11-15T08:46:16;5.97;;;3.60;;
66923;SDS011;53835;47.984;7.844;2022-11-15T08:48:45;4.87;;;3.90;;
66923;SDS011;53835;47.984;7.844;2022-11-15T08:51:12;4.33;;;3.73;;
66923;SDS011;53835;47.984;7.844;2022-11-15T08:53:39;7.23;;;3.67;;
66923;SDS011;53835;47.984;7.844;2022-11-15T08:56:07;8.30;;;3.87;;
66923;SDS011;53835;47.984;7.844;2022-11-15T08:58:35;6.57;;;3.40;;
66923;SDS011;53835;47.984;7.844;2022-11-15T09:01:03;8.53;;;4.20;;
66923;SDS011;53835;47.984;7.844;2022-11-15T09:03:30;4.60;;;4.20;;
66923;SDS011;53835;47.984;7.844;2022-11-15T09:05:58;8.13;;;4.03;;
66923;SDS011;53835;47.984;7.844;2022-11-15T09:08:26;4.33;;;3.93;;
66923;SDS011;53835;47.984;7.844;2022-11-15T09:10:54;5.03;;;4.00;;
66923;SDS011;53835;47.984;7.844;2022-11-15T09:13:22;5.50;;;4.00;;
66923;SDS011;53835;47.984;7.844;2022-11-15T09:15:49;6.07;;;3.83;;
66923;SDS011;53835;47.984;7.844;2022-11-15T09:18:16;12.73;;;3.87;;
66923;SDS011;53835;47.984;7.844;2022-11-15T09:20:43;6.23;;;3.90;;
66923;SDS011;53835;47.984;7.844;2022-11-15T09:23:11;7.97;;;3.97;;
66923;SDS011;53835;47.984;7.844;2022-11-15T09:25:38;4.57;;;3.43;;
66923;SDS011;53835;47.984;7.844;2022-11-15T09:28:06;5.50;;;3.40;;
66923;SDS011;53835;47.984;7.844;2022-11-15T09:30:33;5.90;;;3.43;;
66923;SDS011;53835;47.984;7.844;2022-11-15T09:33:07;5.83;;;4.00;;
66923;SDS011;53835;47.984;7.844;2022-11-15T09:35:35;4.33;;;3.20;;
66923;SDS011;53835;47.984;7.844;2022-11-15T09:38:02;5.00;;;3.60;;
66923;SDS011;53835;47.984;7.844;2022-11-15T09:40:31;6.77;;;3.80;;
66923;SDS011;53835;47.984;7.844;2022-11-15T09:43:05;9.00;;;3.60;;
66923;SDS011;53835;47.984;7.844;2022-11-15T09:45:53;8.53;;;4.23;;
66923;SDS011;53835;47.984;7.844;2022-11-15T09:50:38;5.23;;;4.10;;
66923;SDS011;53835;47.984;7.844;2022-11-15T09:53:08;5.27;;;4.10;;
66923;SDS011;53835;47.984;7.844;2022-11-15T09:55:40;6.53;;;4.30;;
66923;SDS011;53835;47.984;7.844;2022-11-15T09:58:31;6.17;;;4.00;;
66923;SDS011;53835;47.984;7.844;2022-11-15T10:00:38;5.97;;;4.00;;
66923;SDS011;53835;47.984;7.844;2022-11-15T10:03:13;6.20;;;3.73;;
66923;SDS011;53835;47.984;7.844;2022-11-15T10:05:46;6.17;;;4.00;;
66923;SDS011;53835;47.984;7.844;2022-11-15T10:11:01;7.00;;;4.40;;
66923;SDS011;53835;47.984;7.844;2022-11-15T10:13:31;7.47;;;4.67;;
66923;SDS011;53835;47.984;7.844;2022-11-15T10:16:12;5.07;;;4.10;;
66923;SDS011;53835;47.984;7.844;2022-11-15T10:18:34;6.30;;;4.43;;
66923;SDS011;53835;47.984;7.844;2022-11-15T10:21:02;6.23;;;3.50;;
66923;SDS011;53835;47.984;7.844;2022-11-15T10:23:28;5.93;;;4.13;;
66923;SDS011;53835;47.984;7.844;2022-11-15T10:25:57;5.97;;;3.73;;
66923;SDS011;53835;47.984;7.844;2022-11-15T10:30:57;5.90;;;4.10;;
66923;SDS011;53835;47.984;7.844;2022-11-15T10:41:29;4.73;;;3.50;;
66923;SDS011;53835;47.984;7.844;2022-11-15T10:44:17;7.83;;;3.60;;
66923;SDS011;53835;47.984;7.844;2022-11-15T10:46:41;6.90;;;3.73;;
66923;SDS011;53835;47.984;7.844;2022-11-15T10:49:15;4.17;;;3.73;;
66923;SDS011;53835;47.984;7.844;2022-11-15T10:54:17;5.33;;;3.50;;
66923;SDS011;53835;47.984;7.844;2022-11-15T10:56:43;4.60;;;3.50;;
66923;SDS011;53835;47.984;7.844;2022-11-15T10:59:14;4.80;;;3.27;;
66923;SDS011;53835;47.984;7.844;2022-11-15T11:01:47;7.80;;;3.53;;
66923;SDS011;53835;47.984;7.844;2022-11-15T11:04:14;3.70;;;3.27;;
66923;SDS011;53835;47.984;7.844;2022-11-15T11:06:48;3.83;;;3.00;;
66923;SDS011;53835;47.984;7.844;2022-11-15T11:09:21;6.03;;;3.10;;
66923;SDS011;53835;47.984;7.844;2022-11-15T11:11:48;3.73;;;2.70;;
66923;SDS011;53835;47.984;7.844;2022-11-15T11:14:20;3.33;;;2.60;;
66923;SDS011;53835;47.984;7.844;2022-11-15T11:16:47;4.13;;;2.10;;
66923;SDS011;53835;47.984;7.844;2022-11-15T11:22:35;2.87;;;2.40;;
66923;SDS011;53835;47.984;7.844;2022-11-15T11:24:41;2.77;;;2.57;;
66923;SDS011;53835;47.984;7.844;2022-11-15T11:27:08;4.30;;;2.50;;
66923;SDS011;53835;47.984;7.844;2022-11-15T11:29:53;5.53;;;2.60;;
66923;SDS011;53835;47.984;7.844;2022-11-15T11:35:50;4.37;;;2.30;;
66923;SDS011;53835;47.984;7.844;2022-11-15T11:37:33;3.73;;;2.40;;
66923;SDS011;53835;47.984;7.844;2022-11-15T11:40:11;2.40;;;2.03;;
66923;SDS011;53835;47.984;7.844;2022-11-15T11:48:12;5.33;;;3.00;;
66923;SDS011;53835;47.984;7.844;2022-11-15T11:50:41;5.73;;;3.37;;
66923;SDS011;53835;47.984;7.844;2022-11-15T11:53:25;2.27;;;2.07;;
66923;SDS011;53835;47.984;7.844;2022-11-15T11:55:53;3.13;;;1.97;;
66923;SDS011;53835;47.984;7.844;2022-11-15T11:58:32;2.80;;;2.00;;
66923;SDS011;53835;47.984;7.844;2022-11-15T12:06:01;2.43;;;2.10;;
66923;SDS011;53835;47.984;7.844;2022-11-15T12:11:16;1.63;;;1.53;;
66923;SDS011;53835;47.984;7.844;2022-11-15T12:13:43;2.47;;;2.27;;
66923;SDS011;53835;47.984;7.844;2022-11-15T12:16:23;2.93;;;1.90;;
66923;SDS011;53835;47.984;7.844;2022-11-15T12:18:48;3.33;;;2.27;;
66923;SDS011;53835;47.984;7.844;2022-11-15T12:21:21;8.20;;;2.40;;
66923;SDS011;53835;47.984;7.844;2022-11-15T12:23:46;1.90;;;1.50;;
66923;SDS011;53835;47.984;7.844;2022-11-15T12:26:33;2.30;;;1.83;;
66923;SDS011;53835;47.984;7.844;2022-11-15T12:33:46;2.43;;;2.10;;
66923;SDS011;53835;47.984;7.844;2022-11-15T12:38:55;2.33;;;1.50;;
66923;SDS011;53835;47.984;7.844;2022-11-15T12:41:30;1.83;;;1.53;;
66923;SDS011;53835;47.984;7.844;2022-11-15T12:43:58;3.87;;;2.73;;
66923;SDS011;53835;47.984;7.844;2022-11-15T12:49:08;9.43;;;5.90;;
66923;SDS011;53835;47.984;7.844;2022-11-15T13:02:27;8.17;;;4.57;;
66923;SDS011;53835;47.984;7.844;2022-11-15T13:04:51;8.93;;;6.00;;
66923;SDS011;53835;47.984;7.844;2022-11-15T13:07:55;8.37;;;4.40;;
66923;SDS011;53835;47.984;7.844;2022-11-15T13:09:54;6.97;;;4.03;;
66923;SDS011;53835;47.984;7.844;2022-11-15T13:14:54;7.90;;;3.90;;
66923;SDS011;53835;47.984;7.844;2022-11-15T13:20:02;5.97;;;3.43;;
66923;SDS011;53835;47.984;7.844;2022-11-15T13:22:38;6.63;;;3.40;;
66923;SDS011;53835;47.984;7.844;2022-11-15T13:28:01;5.07;;;3.20;;
66923;SDS011;53835;47.984;7.844;2022-11-15T13:30:29;4.13;;;3.20;;
66923;SDS011;53835;47.984;7.844;2022-11-15T13:32:58;5.10;;;3.20;;
66923;SDS011;53835;47.984;7.844;2022-11-15T13:35:26;6.17;;;2.40;;
66923;SDS011;53835;47.984;7.844;2022-11-15T13:37:54;4.23;;;2.43;;
66923;SDS011;53835;47.984;7.844;2022-11-15T13:40:26;4.30;;;2.80;;
66923;SDS011;53835;47.984;7.844;2022-11-15T13:42:56;5.10;;;3.37;;
66923;SDS011;53835;47.984;7.844;2022-11-15T13:45:24;1.47;;;1.37;;
66923;SDS011;53835;47.984;7.844;2022-11-15T13:47:56;3.17;;;2.47;;
66923;SDS011;53835;47.984;7.844;2022-11-15T13:50:25;3.60;;;2.43;;
66923;SDS011;53835;47.984;7.844;2022-11-15T13:52:53;4.30;;;2.70;;
66923;SDS011;53835;47.984;7.844;2022-11-15T13:55:21;3.03;;;1.90;;
66923;SDS011;53835;47.984;7.844;2022-11-15T13:58:00;3.10;;;2.10;;
66923;SDS011;53835;47.984;7.844;2022-11-15T14:00:37;2.50;;;2.30;;
66923;SDS011;53835;47.984;7.844;2022-11-15T14:03:13;3.67;;;2.60;;
66923;SDS011;53835;47.984;7.844;2022-11-15T14:05:34;5.27;;;2.83;;
66923;SDS011;53835;47.984;7.844;2022-11-15T14:11:04;1.83;;;1.50;;
66923;SDS011;53835;47.984;7.844;2022-11-15T14:13:28;2.20;;;1.67;;
66923;SDS011;53835;47.984;7.844;2022-11-15T14:16:11;1.80;;;1.70;;
66923;SDS011;53835;47.984;7.844;2022-11-15T14:21:09;3.27;;;2.67;;
66923;SDS011;53835;47.984;7.844;2022-11-15T14:23:37;2.53;;;2.27;;
66923;SDS011;53835;47.984;7.844;2022-11-15T14:26:04;3.23;;;2.40;;
66923;SDS011;53835;47.984;7.844;2022-11-15T14:28:32;2.50;;;2.30;;
66923;SDS011;53835;47.984;7.844;2022-11-15T14:31:02;7.63;;;3.47;;
66923;SDS011;53835;47.984;7.844;2022-11-15T14:33:34;2.80;;;2.33;;
66923;SDS011;53835;47.984;7.844;2022-11-15T14:38:40;2.87;;;2.60;;
66923;SDS011;53835;47.984;7.844;2022-11-15T14:41:19;2.57;;;2.00;;
66923;SDS011;53835;47.984;7.844;2022-11-15T14:43:46;11.60;;;8.97;;
66923;SDS011;53835;47.984;7.844;2022-11-15T14:46:14;3.47;;;3.00;;
66923;SDS011;53835;47.984;7.844;2022-11-15T14:48:41;3.40;;;2.90;;
66923;SDS011;53835;47.984;7.844;2022-11-15T14:51:12;7.40;;;2.50;;
66923;SDS011;53835;47.984;7.844;2022-11-15T14:53:40;6.33;;;3.23;;
66923;SDS011;53835;47.984;7.844;2022-11-15T14:56:08;4.63;;;2.27;;
66923;SDS011;53835;47.984;7.844;2022-11-15T14:58:35;4.83;;;2.30;;
66923;SDS011;53835;47.984;7.844;2022-11-15T15:01:05;2.80;;;2.10;;
66923;SDS011;53835;47.984;7.844;2022-11-15T15:03:31;3.43;;;2.40;;
66923;SDS011;53835;47.984;7.844;2022-11-15T15:05:58;3.27;;;2.73;;
66923;SDS011;53835;47.984;7.844;2022-11-15T15:08:25;4.27;;;2.40;;
66923;SDS011;53835;47.984;7.844;2022-11-15T15:10:53;3.90;;;2.70;;
66923;SDS011;53835;47.984;7.844;2022-11-15T15:13:21;6.50;;;2.83;;
66923;SDS011;53835;47.984;7.844;2022-11-15T15:15:49;6.10;;;3.63;;
66923;SDS011;53835;47.984;7.844;2022-11-15T15:18:17;6.20;;;2.73;;
66923;SDS011;53835;47.984;7.844;2022-11-15T15:20:53;4.10;;;2.63;;
66923;SDS011;53835;47.984;7.844;2022-11-15T15:23:18;4.77;;;3.30;;
66923;SDS011;53835;47.984;7.844;2022-11-15T15:25:46;7.10;;;3.20;;
66923;SDS011;53835;47.984;7.844;2022-11-15T15:28:15;6.70;;;3.40;;
66923;SDS011;53835;47.984;7.844;2022-11-15T15:30:42;4.57;;;4.10;;
66923;SDS011;53835;47.984;7.844;2022-11-15T15:33:10;8.27;;;5.10;;
66923;SDS011;53835;47.984;7.844;2022-11-15T15:35:37;9.23;;;5.30;;
66923;SDS011;53835;47.984;7.844;2022-11-15T15:38:04;9.87;;;5.60;;
66923;SDS011;53835;47.984;7.844;2022-11-15T15:40:32;12.30;;;5.77;;
66923;SDS011;53835;47.984;7.844;2022-11-15T15:43:00;8.40;;;5.63;;
66923;SDS011;53835;47.984;7.844;2022-11-15T15:45:27;12.77;;;6.70;;
66923;SDS011;53835;47.984;7.844;2022-11-15T15:47:55;9.77;;;6.80;;
66923;SDS011;53835;47.984;7.844;2022-11-15T15:50:24;8.87;;;6.37;;
66923;SDS011;53835;47.984;7.844;2022-11-15T15:52:52;11.27;;;6.03;;
66923;SDS011;53835;47.984;7.844;2022-11-15T15:55:21;10.93;;;6.40;;
66923;SDS011;53835;47.984;7.844;2022-11-15T15:57:48;9.20;;;6.23;;
66923;SDS011;53835;47.984;7.844;2022-11-15T16:00:16;7.20;;;6.17;;
66923;SDS011;53835;47.984;7.844;2022-11-15T16:02:43;10.07;;;7.07;;
66923;SDS011;53835;47.984;7.844;2022-11-15T16:05:11;13.13;;;6.80;;
66923;SDS011;53835;47.984;7.844;2022-11-15T16:07:39;10.33;;;8.77;;
66923;SDS011;53835;47.984;7.844;2022-11-15T16:10:15;9.47;;;6.43;;
66923;SDS011;53835;47.984;7.844;2022-11-15T16:12:38;8.33;;;6.50;;
66923;SDS011;53835;47.984;7.844;2022-11-15T16:15:05;10.13;;;6.73;;
66923;SDS011;53835;47.984;7.844;2022-11-15T16:17:34;10.00;;;5.97;;
66923;SDS011;53835;47.984;7.844;2022-11-15T16:20:02;8.10;;;6.70;;
66923;SDS011;53835;47.984;7.844;2022-11-15T16:22:29;11.33;;;6.57;;
66923;SDS011;53835;47.984;7.844;2022-11-15T16:24:56;9.33;;;6.70;;
66923;SDS011;53835;47.984;7.844;2022-11-15T16:27:23;12.90;;;7.40;;
66923;SDS011;53835;47.984;7.844;2022-11-15T16:29:51;11.07;;;6.63;;